createdAt,value
2023-03-06T00:01:00.660Z,100711.19
2023-03-06T00:03:28.526Z,100711.19
2023-03-06T00:05:57.803Z,100708.53
2023-03-06T00:08:27.262Z,100705.03
2023-03-06T00:10:56.344Z,100697.13
2023-03-06T00:13:24.451Z,100701.38
2023-03-06T00:15:51.861Z,100697.91
2023-03-06T00:18:18.858Z,100693.53
2023-03-06T00:20:46.360Z,100691.75
2023-03-06T00:23:13.685Z,100691.75
2023-03-06T00:25:45.615Z,100686.47
2023-03-06T00:28:16.083Z,100687.25
2023-03-06T00:30:44.022Z,100681.91
2023-03-06T00:33:11.379Z,100676.59
2023-03-06T00:35:40.214Z,100678.25
2023-03-06T00:38:09.936Z,100675.63
2023-03-06T00:40:37.278Z,100672.09
2023-03-06T00:43:04.286Z,100664.13
2023-03-06T00:45:31.348Z,100665.84
2023-03-06T00:47:58.858Z,100663.97
2023-03-06T00:50:26.168Z,100658.66
2023-03-06T00:52:53.201Z,100655.03
2023-03-06T00:55:20.277Z,100654.09
2023-03-06T00:57:48.577Z,100650.53
2023-03-06T01:00:16.226Z,100652.19
2023-03-06T01:02:43.547Z,100655.59
2023-03-06T01:05:14.260Z,100648.28
2023-03-06T01:07:41.763Z,100643.91
2023-03-06T01:10:10.375Z,100647.22
2023-03-06T01:12:37.599Z,100644.53
2023-03-06T01:15:25.489Z,100640.09
2023-03-06T01:21:59.371Z,100638.34
2023-03-06T01:24:51.076Z,100636.66
2023-03-06T01:27:21.266Z,100636.78
2023-03-06T01:29:48.412Z,100631.75
2023-03-06T01:32:15.758Z,100627.56
2023-03-06T01:34:42.761Z,100627.69
2023-03-06T01:37:10.025Z,100627.84
2023-03-06T01:39:37.165Z,100632.31
2023-03-06T01:42:04.739Z,100629.88
2023-03-06T01:44:32.287Z,100623.00
2023-03-06T01:47:02.223Z,100622.25
2023-03-06T01:49:41.198Z,100627.53
2023-03-06T01:52:18.353Z,100621.56
2023-03-06T01:54:56.937Z,100619.91
2023-03-06T01:57:29.385Z,100612.97
2023-03-06T02:00:13.741Z,100619.09
2023-03-06T02:02:56.901Z,100614.78
2023-03-06T02:05:24.635Z,100613.06
2023-03-06T02:07:52.408Z,100610.41
2023-03-06T02:10:20.802Z,100615.66
2023-03-06T02:12:49.759Z,100608.59
2023-03-06T02:15:24.459Z,100611.19
2023-03-06T02:17:53.006Z,100603.19
2023-03-06T02:20:26.559Z,100604.75
2023-03-06T02:23:33.853Z,100607.13
2023-03-06T02:26:03.228Z,100599.13
2023-03-06T02:28:34.273Z,100595.44
2023-03-06T03:36:24.926Z,100523.22
2023-03-06T03:38:57.457Z,100512.84
2023-03-06T03:44:34.795Z,100509.34
2023-03-06T03:47:02.270Z,100522.34
2023-03-06T03:49:32.108Z,100513.56
2023-03-06T03:57:07.580Z,100509.13
2023-03-06T04:13:14.366Z,100500.03
2023-03-06T06:16:40.446Z,100442.13
2023-03-06T06:19:08.264Z,100443.91
2023-03-06T06:27:23.254Z,100433.59
2023-03-06T06:29:54.014Z,100431.81
2023-03-06T06:32:21.381Z,100448.34
2023-03-06T06:34:48.795Z,100436.25
2023-03-06T06:37:16.836Z,100442.44
2023-03-06T06:39:44.046Z,100445.13
2023-03-06T06:42:29.422Z,100440.81
2023-03-06T06:44:57.739Z,100440.88
2023-03-06T06:47:26.022Z,100434.16
2023-03-06T06:49:55.860Z,100429.91
2023-03-06T06:52:25.119Z,100433.50
2023-03-06T06:54:53.191Z,100435.34
2023-03-06T06:57:20.639Z,100430.25
2023-03-06T06:59:47.709Z,100434.69
2023-03-06T07:02:16.503Z,100431.22
2023-03-06T07:05:00.769Z,100442.59
2023-03-06T07:07:31.116Z,100436.69
2023-03-06T07:09:58.169Z,100449.00
2023-03-06T07:12:25.734Z,100434.28
2023-03-06T07:14:53.225Z,100440.41
2023-03-06T07:17:20.279Z,100433.44
2023-03-06T07:19:48.321Z,100432.63
2023-03-06T07:22:15.606Z,100428.31
2023-03-06T07:24:42.903Z,100441.44
2023-03-06T07:27:10.149Z,100435.34
2023-03-06T07:29:37.483Z,100434.50
2023-03-06T07:32:04.794Z,100434.47
2023-03-06T07:34:32.266Z,100439.72
2023-03-06T07:36:59.346Z,100442.34
2023-03-06T07:39:28.165Z,100441.56
2023-03-06T07:41:55.374Z,100433.97
2023-03-06T07:44:22.775Z,100432.47
2023-03-06T07:46:49.864Z,100438.69
2023-03-06T07:49:17.483Z,100436.97
2023-03-06T07:51:45.076Z,100443.94
2023-03-06T07:54:12.417Z,100440.47
2023-03-06T07:56:39.498Z,100445.78
2023-03-06T07:59:06.681Z,100438.03
2023-03-06T08:01:33.894Z,100439.06
2023-03-06T08:04:02.255Z,100430.59
2023-03-06T08:06:29.924Z,100431.72
2023-03-06T08:08:57.682Z,100435.47
2023-03-06T08:11:29.140Z,100440.00
2023-03-06T08:13:58.005Z,100433.09
2023-03-06T08:16:29.808Z,100445.41
2023-03-06T08:18:58.068Z,100448.09
2023-03-06T08:21:28.215Z,100441.16
2023-03-06T08:23:55.440Z,100447.28
2023-03-06T08:26:32.140Z,100447.25
2023-03-06T08:29:02.149Z,100451.47
2023-03-06T08:31:38.888Z,100444.47
2023-03-06T08:34:10.250Z,100447.81
2023-03-06T08:36:37.634Z,100449.38
2023-03-06T08:39:05.411Z,100449.28
2023-03-06T08:41:33.274Z,100456.34
2023-03-06T08:44:00.616Z,100456.63
2023-03-06T08:46:29.802Z,100447.38
2023-03-06T08:48:57.696Z,100457.09
2023-03-06T08:51:25.906Z,100458.00
2023-03-06T08:53:53.401Z,100456.25
2023-03-06T08:56:27.793Z,100455.44
2023-03-06T08:58:56.606Z,100451.19
2023-03-06T09:01:29.000Z,100451.44
2023-03-06T09:03:59.859Z,100452.00
2023-03-06T09:06:31.666Z,100443.75
2023-03-06T09:08:59.672Z,100443.28
2023-03-06T09:11:28.089Z,100445.34
2023-03-06T09:13:55.866Z,100445.59
2023-03-06T09:16:23.809Z,100447.50
2023-03-06T09:18:53.188Z,100449.38
2023-03-06T09:21:22.664Z,100444.28
2023-03-06T09:23:50.620Z,100447.00
2023-03-06T09:26:18.665Z,100450.56
2023-03-06T09:28:46.500Z,100441.06
2023-03-06T09:31:18.813Z,100451.59
2023-03-06T09:33:46.686Z,100453.44
2023-03-06T09:36:21.194Z,100457.75
2023-03-06T09:38:49.932Z,100450.72
2023-03-06T09:41:31.207Z,100456.84
2023-03-06T09:44:23.521Z,100451.66
2023-03-06T09:47:32.188Z,100457.78
2023-03-06T09:50:17.074Z,100449.94
2023-03-06T09:53:05.406Z,100456.13
2023-03-06T09:55:38.146Z,100447.50
2023-03-06T09:58:23.285Z,100453.66
2023-03-06T10:01:02.185Z,100453.66
2023-03-06T10:03:45.351Z,100458.88
2023-03-06T10:06:34.489Z,100451.78
2023-03-06T10:09:41.435Z,100451.72
2023-03-06T10:12:28.675Z,100456.13
2023-03-06T10:15:22.434Z,100450.06
2023-03-06T10:17:49.990Z,100446.59
2023-03-06T10:20:41.243Z,100447.53
2023-03-06T10:23:55.445Z,100450.22
2023-03-06T10:26:32.661Z,100449.34
2023-03-06T10:30:01.704Z,100456.34
2023-03-06T10:33:19.852Z,100454.63
2023-03-06T10:35:53.385Z,100454.63
2023-03-06T10:38:32.740Z,100455.53
2023-03-06T10:41:12.011Z,100460.78
2023-03-06T10:44:05.711Z,100459.91
2023-03-06T10:46:47.000Z,100463.38
2023-03-06T10:49:32.511Z,100462.53
2023-03-06T10:52:14.768Z,100458.16
2023-03-06T10:54:45.173Z,100461.69
2023-03-06T10:57:29.551Z,100456.41
2023-03-06T11:00:06.514Z,100463.41
2023-03-06T11:02:41.220Z,100464.28
2023-03-06T11:05:21.114Z,100459.91
2023-03-06T11:07:59.511Z,100461.66
2023-03-06T11:10:30.047Z,100463.44
2023-03-06T11:13:07.757Z,100456.41
2023-03-06T11:15:35.690Z,100459.91
2023-03-06T11:18:34.995Z,100449.41
2023-03-06T11:21:07.414Z,100449.41
2023-03-06T11:23:47.550Z,100452.91
2023-03-06T11:26:18.011Z,100448.53
2023-03-06T11:29:23.061Z,100448.53
2023-03-06T11:32:31.745Z,100446.75
2023-03-06T11:35:09.529Z,100439.75
2023-03-06T11:38:04.923Z,100444.13
2023-03-06T11:40:57.570Z,100435.41
2023-03-06T11:43:43.512Z,100432.78
2023-03-06T11:46:26.545Z,100433.63
2023-03-06T11:49:16.413Z,100437.97
2023-03-06T11:51:51.825Z,100425.75
2023-03-06T11:54:19.091Z,100429.19
2023-03-06T11:57:12.774Z,100426.50
2023-03-06T12:00:04.605Z,100416.00
2023-03-06T12:03:02.181Z,100417.69
2023-03-06T12:05:58.480Z,100415.06
2023-03-06T12:09:05.216Z,100404.47
2023-03-06T12:12:10.450Z,100402.66
2023-03-06T12:14:55.800Z,100404.34
2023-03-06T12:17:42.385Z,100400.78
2023-03-06T12:20:58.283Z,100396.28
2023-03-06T12:24:01.034Z,100384.84
2023-03-06T12:26:57.270Z,100388.41
2023-03-06T12:30:14.522Z,100391.97
2023-03-06T12:33:05.972Z,100384.13
2023-03-06T12:36:00.415Z,100382.44
2023-03-06T12:39:04.508Z,100379.91
2023-03-06T12:42:01.621Z,100375.56
2023-03-06T12:44:32.499Z,100372.13
2023-03-06T12:47:11.823Z,100368.78
2023-03-06T12:49:44.269Z,100367.09
2023-03-06T12:52:30.399Z,100357.56
2023-03-06T12:55:00.884Z,100356.69
2023-03-06T12:57:28.071Z,100363.69
2023-03-06T12:59:56.250Z,100364.41
2023-03-06T13:02:53.766Z,100362.47
2023-03-06T13:05:50.443Z,100361.47
2023-03-06T13:08:44.258Z,100365.66
2023-03-06T13:11:28.637Z,100366.28
2023-03-06T13:13:56.409Z,100366.06
2023-03-06T13:16:34.787Z,100367.53
2023-03-06T13:19:12.713Z,100354.31
2023-03-06T13:21:46.587Z,100348.25
2023-03-06T13:24:35.686Z,100340.47
2023-03-06T13:27:05.927Z,100344.88
2023-03-06T13:29:39.106Z,100330.03
2023-03-06T13:32:19.386Z,100337.03
2023-03-06T13:34:50.185Z,100329.22
2023-03-06T13:37:17.305Z,100334.47
2023-03-06T13:39:59.638Z,100334.44
2023-03-06T13:42:34.353Z,100324.78
2023-03-06T13:45:22.819Z,100317.88
2023-03-06T13:50:48.001Z,100316.25
2023-03-06T13:53:48.704Z,100317.25
2023-03-06T13:56:41.513Z,100314.78
2023-03-06T13:59:34.718Z,100311.50
2023-03-06T14:02:52.969Z,100312.56
2023-03-06T14:05:20.658Z,100315.28
2023-03-06T14:08:19.459Z,100306.59
2023-03-06T14:10:59.396Z,100312.66
2023-03-06T14:13:45.336Z,100297.00
2023-03-06T14:16:23.275Z,100294.44
2023-03-06T14:18:53.932Z,100298.91
2023-03-06T14:21:40.400Z,100287.63
2023-03-06T14:24:16.294Z,100278.00
2023-03-06T14:26:49.712Z,100275.38
2023-03-06T14:29:26.508Z,100266.66
2023-03-06T14:31:57.544Z,100266.66
2023-03-06T14:34:45.588Z,100265.78
2023-03-06T14:37:25.207Z,100256.16
2023-03-06T14:39:52.916Z,100254.41
2023-03-06T14:42:28.959Z,100251.78
2023-03-06T14:45:17.604Z,100252.66
2023-03-06T14:47:51.393Z,100249.19
2023-03-06T14:50:29.282Z,100243.00
2023-03-06T14:53:04.224Z,100234.25
2023-03-06T14:55:35.533Z,100228.13
2023-03-06T14:58:15.041Z,100234.22
2023-03-06T15:00:46.077Z,100229.84
2023-03-06T15:03:19.670Z,100227.19
2023-03-06T15:05:48.158Z,100225.41
2023-03-06T15:08:23.682Z,100224.56
2023-03-06T15:11:03.986Z,100216.66
2023-03-06T15:13:33.319Z,100214.91
2023-03-06T15:16:29.995Z,100210.53
2023-03-06T15:19:01.363Z,100207.94
2023-03-06T15:21:39.208Z,100209.72
2023-03-06T15:24:35.543Z,100200.09
2023-03-06T15:27:06.945Z,100208.91
2023-03-06T15:29:39.236Z,100207.19
2023-03-06T15:32:25.099Z,100201.94
2023-03-06T15:35:29.523Z,100204.53
2023-03-06T15:37:59.104Z,100197.56
2023-03-06T15:40:31.138Z,100189.69
2023-03-06T15:42:59.337Z,100195.81
2023-03-06T15:45:28.399Z,100187.09
2023-03-06T15:47:56.291Z,100178.34
2023-03-06T15:54:32.905Z,100181.84
2023-03-06T15:57:00.774Z,100169.63
2023-03-06T15:59:33.279Z,100170.53
2023-03-06T16:02:11.916Z,100170.50
2023-03-06T16:04:39.066Z,100163.53
2023-03-06T16:07:06.525Z,100166.16
2023-03-06T16:09:33.779Z,100162.69
2023-03-06T16:12:01.184Z,100147.81
2023-03-06T16:14:28.457Z,100148.75
2023-03-06T16:16:57.516Z,100153.09
2023-03-06T16:19:27.730Z,100149.59
2023-03-06T16:21:56.459Z,100146.97
2023-03-06T16:24:26.443Z,100146.13
2023-03-06T16:26:55.210Z,100139.13
2023-03-06T16:29:26.004Z,100145.19
2023-03-06T16:31:55.434Z,100143.44
2023-03-06T16:34:22.871Z,100132.94
2023-03-06T16:36:50.861Z,100139.06
2023-03-06T16:39:21.366Z,100136.41
2023-03-06T16:41:52.144Z,100137.25
2023-03-06T16:44:20.830Z,100123.31
2023-03-06T16:46:50.188Z,100121.56
2023-03-06T16:49:24.656Z,100125.00
2023-03-06T16:51:53.944Z,100131.09
2023-03-06T16:54:24.271Z,100128.47
2023-03-06T16:56:51.677Z,100128.44
2023-03-06T16:59:19.101Z,100120.56
2023-03-06T17:01:46.549Z,100133.66
2023-03-06T17:04:14.017Z,100130.13
2023-03-06T17:06:41.937Z,100126.63
2023-03-06T17:09:10.930Z,100120.53
2023-03-06T17:11:43.140Z,100121.38
2023-03-06T17:14:10.368Z,100123.06
2023-03-06T17:16:40.402Z,100114.31
2023-03-06T17:19:08.418Z,100126.50
2023-03-06T17:21:38.455Z,100119.53
2023-03-06T17:24:07.259Z,100117.75
2023-03-06T17:26:36.573Z,100115.97
2023-03-06T17:29:06.954Z,100120.28
2023-03-06T17:31:34.581Z,100112.38
2023-03-06T17:34:02.624Z,100124.56
2023-03-06T17:36:32.094Z,100128.00
2023-03-06T17:39:02.114Z,100121.84
2023-03-06T17:41:30.121Z,100116.63
2023-03-06T17:43:58.422Z,100113.13
2023-03-06T17:46:26.215Z,100120.94
2023-03-06T17:48:54.850Z,100113.09
2023-03-06T17:51:22.310Z,100116.56
2023-03-06T17:53:52.256Z,100117.44
2023-03-06T17:56:21.212Z,100114.81
2023-03-06T17:58:48.683Z,100115.69
2023-03-06T18:01:21.450Z,100113.94
2023-03-06T18:03:50.776Z,100111.34
2023-03-06T18:06:20.843Z,100112.16
2023-03-06T18:08:51.608Z,100106.88
2023-03-06T18:11:20.438Z,100114.69
2023-03-06T18:13:48.762Z,100106.84
2023-03-06T18:16:20.090Z,100097.22
2023-03-06T18:18:47.533Z,100095.47
2023-03-06T18:21:16.555Z,100092.00
2023-03-06T18:23:44.638Z,100083.28
2023-03-06T18:26:13.190Z,100080.69
2023-03-06T18:28:44.678Z,100072.84
2023-03-06T18:31:28.253Z,100078.06
2023-03-06T18:33:59.243Z,100066.75
2023-03-06T18:36:30.143Z,100071.97
2023-03-06T18:38:58.552Z,100061.53
2023-03-06T18:41:26.366Z,100060.63
2023-03-06T18:43:59.355Z,100057.13
2023-03-06T18:46:33.940Z,100047.56
2023-03-06T18:49:01.979Z,100048.41
2023-03-06T18:51:29.536Z,100040.59
2023-03-06T18:53:59.186Z,100039.72
2023-03-06T18:56:26.624Z,100039.72
2023-03-06T18:58:54.499Z,100036.19
2023-03-06T19:01:23.270Z,100035.31
2023-03-06T19:03:50.833Z,100033.63
2023-03-06T19:06:18.237Z,100027.53
2023-03-06T19:08:45.502Z,100030.16
2023-03-06T19:11:15.922Z,100023.22
2023-03-06T19:13:44.466Z,100014.50
2023-03-06T19:16:22.610Z,100016.22
2023-03-06T19:18:50.037Z,100022.28
2023-03-06T19:21:21.340Z,100012.69
2023-03-06T19:23:49.587Z,100010.09
2023-03-06T19:26:21.081Z,100006.59
2023-03-06T19:28:49.708Z,100003.97
2023-03-06T19:31:20.775Z,100002.19
2023-03-06T19:33:49.939Z,99996.97
2023-03-06T19:36:18.684Z,99998.72
2023-03-06T19:38:50.382Z,99996.03
2023-03-06T19:41:17.970Z,99983.00
2023-03-06T19:43:54.082Z,99986.47
2023-03-06T19:46:23.229Z,99979.44
2023-03-06T19:48:59.315Z,99976.78
2023-03-06T19:51:28.334Z,99965.44
2023-03-06T19:53:57.895Z,99975.88
2023-03-06T19:56:28.913Z,99971.50
2023-03-06T19:58:56.855Z,99954.94
2023-03-06T20:01:27.166Z,99955.81
2023-03-06T20:03:59.763Z,99948.84
2023-03-06T20:06:33.777Z,99945.31
2023-03-06T20:09:05.660Z,99936.59
2023-03-06T20:11:33.177Z,99936.59
2023-03-06T20:14:03.007Z,99927.88
2023-03-06T20:16:46.908Z,99926.09
2023-03-06T20:19:19.699Z,99920.88
2023-03-06T20:21:49.112Z,99916.53
2023-03-06T20:24:18.010Z,99917.41
2023-03-06T20:26:47.099Z,99908.72
2023-03-06T20:29:14.651Z,99905.19
2023-03-06T20:31:42.186Z,99903.44
2023-03-06T20:34:15.021Z,99899.97
2023-03-06T20:36:42.351Z,99893.88
2023-03-06T20:39:14.909Z,99885.16
2023-03-06T20:41:43.298Z,99881.66
2023-03-06T20:44:15.472Z,99879.94
2023-03-06T20:46:43.302Z,99883.41
2023-03-06T20:49:12.951Z,99876.47
2023-03-06T20:51:41.872Z,99873.91
2023-03-06T20:54:13.190Z,99861.75
2023-03-06T20:56:43.250Z,99865.22
2023-03-06T20:59:14.156Z,99866.09
2023-03-06T21:01:45.025Z,99865.22
2023-03-06T21:04:14.583Z,99867.81
2023-03-06T21:06:46.580Z,99863.53
2023-03-06T21:09:17.133Z,99854.81
2023-03-06T21:11:45.489Z,99854.84
2023-03-06T21:14:14.437Z,99854.84
2023-03-06T21:16:42.890Z,99845.28
2023-03-06T21:19:10.757Z,99860.06
2023-03-06T21:21:38.503Z,99847.09
2023-03-06T21:24:06.123Z,99843.63
2023-03-06T21:26:34.328Z,99835.78
2023-03-06T21:29:02.899Z,99835.81
2023-03-06T21:31:31.240Z,99838.41
2023-03-06T21:33:59.134Z,99830.59
2023-03-06T21:36:27.996Z,99821.94
2023-03-06T21:38:55.808Z,99830.63
2023-03-06T21:41:30.547Z,99824.53
2023-03-06T21:44:06.166Z,99821.94
2023-03-06T21:46:34.939Z,99821.09
2023-03-06T21:49:04.533Z,99815.91
2023-03-06T21:51:32.365Z,99813.28
2023-03-06T21:53:59.949Z,99809.81
2023-03-06T21:56:28.603Z,99802.88
2023-03-06T21:59:00.752Z,99814.22
2023-03-06T22:01:29.351Z,99814.22
2023-03-06T22:03:58.532Z,99803.78
2023-03-06T22:06:29.299Z,99802.06
2023-03-06T22:08:58.916Z,99808.13
2023-03-06T22:11:36.908Z,99801.22
2023-03-06T22:14:06.463Z,99812.56
2023-03-06T22:16:33.877Z,99800.38
2023-03-06T22:19:01.285Z,99809.94
2023-03-06T22:21:28.888Z,99809.06
2023-03-06T22:23:58.712Z,99800.38
2023-03-06T22:26:29.135Z,99799.50
2023-03-06T22:28:56.879Z,99790.81
2023-03-06T22:31:27.317Z,99785.59
2023-03-06T22:33:56.589Z,99789.06
2023-03-06T22:36:24.688Z,99790.81
2023-03-06T22:38:58.736Z,99783.88
2023-03-06T22:41:27.643Z,99782.13
2023-03-06T22:43:59.646Z,99783.00
2023-03-06T22:46:27.403Z,99783.84
2023-03-06T22:48:57.172Z,99781.25
2023-03-06T22:51:24.844Z,99781.25
2023-03-06T22:53:52.530Z,99768.22
2023-03-06T22:56:21.937Z,99767.34
2023-03-06T22:58:49.355Z,99771.66
2023-03-06T23:01:23.412Z,99772.50
2023-03-06T23:03:54.024Z,99769.00
2023-03-06T23:06:33.405Z,99768.13
2023-03-06T23:09:17.723Z,99769.88
2023-03-06T23:11:44.884Z,99770.75
2023-03-06T23:14:14.036Z,99768.13
2023-03-06T23:16:41.438Z,99770.75
2023-03-06T23:19:09.062Z,99770.75
2023-03-06T23:21:36.703Z,99774.22
2023-03-06T23:24:04.506Z,99767.28
2023-03-06T23:26:34.204Z,99768.13
2023-03-06T23:29:04.349Z,99771.63
2023-03-06T23:31:32.536Z,99769.00
2023-03-06T23:34:02.958Z,99766.41
2023-03-06T23:36:31.424Z,99770.78
2023-03-06T23:38:59.006Z,99765.53
2023-03-06T23:41:26.634Z,99769.00
2023-03-06T23:43:55.346Z,99769.91
2023-03-06T23:46:23.075Z,99773.38
2023-03-06T23:48:55.872Z,99773.38
2023-03-06T23:51:24.137Z,99774.22
2023-03-06T23:53:58.367Z,99779.44
2023-03-06T23:56:28.015Z,99790.75
2023-03-06T23:58:55.866Z,99780.31
